This is the latest recevied weather packets stored in our database for station/object K3SV. If no packets are shown the sender has not sent any weather packets the latest 10 day(s).
| Time | Temp. | Humidity | Pressure | Rain* | Wind** | Luminosity | Snow |
|---|---|---|---|---|---|---|---|
| 1777661233 | 31.67° C | 49% | 1011.2 hPa | 0 mm | - | 785 W/m² | - |
| 1777660929 | 32.22° C | 50% | 1011.5 hPa | 0 mm | - | 277 W/m² | - |
| 1777660625 | 33.33° C | 48% | 1011.5 hPa | 0 mm | - | 278 W/m² | - |
| 1777660322 | 32.22° C | 50% | 1011.4 hPa | 0 mm | - | 786 W/m² | - |
| 1777660018 | 32.22° C | 49% | 1011.7 hPa | 0 mm | - | 762 W/m² | - |
| 1777659715 | 32.22° C | 50% | 1011.6 hPa | 0 mm | - | 758 W/m² | - |
| 1777659412 | 32.78° C | 49% | 1011.7 hPa | 0 mm | - | 787 W/m² | - |
| 1777659109 | 32.78° C | 49% | 1011.5 hPa | 0 mm | - | 772 W/m² | - |
| 1777658807 | 32.22° C | 49% | 1011.7 hPa | 0 mm | - | 784 W/m² | - |
| 1777658503 | 31.11° C | 52% | 1011.7 hPa | 0 mm | - | 759 W/m² | - |
| 1777658200 | 31.67° C | 52% | 1011.8 hPa | 0 mm | - | 837 W/m² | - |
| 1777657898 | 31.67° C | 51% | 1011.8 hPa | 0 mm | - | 821 W/m² | - |
| 1777657594 | 31.67° C | 51% | 1011.9 hPa | 0 mm | - | 680 W/m² | - |
| 1777657292 | 31.11° C | 51% | 1011.7 hPa | 0 mm | - | 597 W/m² | - |
| 1777656989 | 31.11° C | 50% | 1012 hPa | 0 mm | - | 800 W/m² | - |
| 1777656685 | 32.78° C | 51% | 1012.1 hPa | 0 mm | - | 713 W/m² | - |
| 1777656376 | 31.67° C | 52% | 1012.1 hPa | 0 mm | - | 596 W/m² | - |
| 1777656071 | 32.22° C | 49% | 1012 hPa | 0 mm | - | 568 W/m² | - |
| 1777655767 | 31.67° C | 51% | 1012 hPa | 0 mm | - | 723 W/m² | - |
| 1777655464 | 32.22° C | 49% | 1012 hPa | 0 mm | - | 804 W/m² | - |
| 1777655161 | 31.11° C | 52% | 1012.3 hPa | 0 mm | - | 823 W/m² | - |
| 1777654858 | 31.67° C | 51% | 1012.3 hPa | 0 mm | - | 200 W/m² | - |
| 1777654556 | 31.11° C | 53% | 1012.3 hPa | 0 mm | - | 299 W/m² | - |
| 1777654252 | 30.56° C | 54% | 1012.3 hPa | 0 mm | - | 734 W/m² | - |
| 1777653950 | 30° C | 54% | 1012.6 hPa | 0 mm | - | 763 W/m² | - |
* Rain latest hour (hover to see other rain measurements)
** Current wind speed in m/s (hover to see current wind gust speed)